BGGH

Godthaab / Nuuk Airport

Nuuk, Greenland
METAR BGGH 200650Z AUTO 08021KT 5000NDV -FZDZ BKN140/// M03/M11 Q0997
Observed Flight Rules
Jan-20 @ 06:50 UTC (14 minutes ago)
Wind Clouds Conditions
80° at 21 knots
  • Broken at 14,000' AGL
  • Light Freezing
  • Light Drizzle
Temperatures Readings
Current -3°C / 27°F
Dewpoint -11°C / 12°F
Humidity 54%
Altimeter 29.44" Hg
Pressure 997 hPa
Elevation 70
METAR BGGH 200650Z AUTO 08021KT 5000NDV -FZDZ BKN140/// M03/M11 Q0997
Observed Flight Rules
Jan-20 @ 06:50 UTC
(14 minutes ago)
Wind
80° at 21 knots
Clouds
  • Broken at 14,000' AGL
Conditions
  • Light Freezing
  • Light Drizzle
Temperature Dewpoint
-3°C / 27°F -11°C / 12°F
Humidity Altimeter Pressure
54% 29.44" Hg 997 hPa